Time;durP1;ratioP1;P1;durP2;ratioP2;P2;SDS_P1;SDS_P2;PMS_P1;PMS_P2;Temp;Humidity;BMP_temperature;BMP_pressure;BME280_temperature;BME280_humidity;BME280_pressure;Samples;Min_cycle;Max_cycle;Signal;HPM_P1;HPM_P2
2022/11/01 00:01:31;;;;;;;8.30;6.87;;;15.00;94.40;;;;;;5118878;28;20818;-46
2022/11/01 00:03:56;;;;;;;8.70;5.83;;;15.00;94.30;;;;;;5117818;28;20415;-46
2022/11/01 00:06:22;;;;;;;6.87;5.67;;;14.90;94.30;;;;;;5100469;28;20430;-45
2022/11/01 00:08:48;;;;;;;7.43;6.40;;;14.90;94.30;;;;;;5118142;28;20216;-45
2022/11/01 00:11:15;;;;;;;7.20;5.80;;;14.90;94.30;;;;;;5117858;28;20182;-46
2022/11/01 00:13:41;;;;;;;7.60;6.17;;;14.90;94.30;;;;;;5117566;28;20182;-48
2022/11/01 00:16:07;;;;;;;7.53;5.43;;;14.90;94.30;;;;;;5098495;28;20481;-45
2022/11/01 00:18:32;;;;;;;7.93;6.20;;;14.90;94.40;;;;;;5119405;28;20247;-47
2022/11/01 00:20:58;;;;;;;6.93;5.77;;;14.80;94.40;;;;;;5118550;28;20466;-45
2022/11/01 00:23:23;;;;;;;9.20;5.90;;;14.90;94.50;;;;;;5116715;28;20176;-47
2022/11/01 00:25:49;;;;;;;9.17;7.57;;;14.80;94.50;;;;;;5117930;28;20175;-47
2022/11/01 00:28:15;;;;;;;6.97;6.27;;;14.80;94.60;;;;;;5118673;28;20202;-47
2022/11/01 00:30:40;;;;;;;10.73;6.87;;;14.80;94.60;;;;;;5118417;28;20565;-47
2022/11/01 00:33:06;;;;;;;9.57;6.80;;;14.80;94.70;;;;;;5118185;28;20587;-46
2022/11/01 00:35:33;;;;;;;9.00;7.00;;;14.80;94.70;;;;;;5118734;28;20269;-49
2022/11/01 00:37:59;;;;;;;22.90;8.20;;;14.80;94.80;;;;;;5118437;28;20189;-45
2022/11/01 00:40:25;;;;;;;10.23;7.20;;;14.80;94.80;;;;;;5118169;28;20478;-45
2022/11/01 00:42:51;;;;;;;8.10;6.50;;;14.70;94.80;;;;;;5100868;28;20470;-46
2022/11/01 00:45:17;;;;;;;8.43;7.17;;;14.70;94.80;;;;;;5118143;28;20449;-46
2022/11/01 00:47:46;;;;;;;9.37;6.60;;;14.70;94.80;;;;;;5100551;28;20190;-45
2022/11/01 00:50:11;;;;;;;9.10;6.27;;;14.70;94.70;;;;;;5117777;28;20751;-47
2022/11/01 00:52:37;;;;;;;8.27;6.17;;;14.70;94.70;;;;;;5118298;28;20453;-48
2022/11/01 00:55:03;;;;;;;9.60;6.90;;;14.70;94.70;;;;;;5117217;28;20190;-46
2022/11/01 00:57:28;;;;;;;7.53;6.27;;;14.70;94.60;;;;;;5117648;28;20642;-46
2022/11/01 00:59:54;;;;;;;9.93;6.87;;;14.70;94.60;;;;;;5117072;28;20226;-47
2022/11/01 01:02:21;;;;;;;6.97;5.83;;;14.70;94.60;;;;;;5118536;28;20252;-45
2022/11/01 01:04:47;;;;;;;7.43;6.70;;;14.70;94.60;;;;;;5117030;28;20489;-45
2022/11/01 01:07:13;;;;;;;13.70;5.90;;;14.70;94.60;;;;;;5117161;28;20603;-45
2022/11/01 01:09:39;;;;;;;6.73;5.70;;;14.70;94.60;;;;;;5117866;28;20503;-46
2022/11/01 01:12:05;;;;;;;8.33;6.30;;;14.70;94.60;;;;;;5117129;28;20546;-47
2022/11/01 01:14:31;;;;;;;7.07;6.17;;;14.60;94.50;;;;;;5116751;28;20424;-49
2022/11/01 01:16:56;;;;;;;7.67;6.20;;;14.60;94.50;;;;;;5115825;28;20182;-46
2022/11/01 01:19:22;;;;;;;6.27;5.67;;;14.60;94.50;;;;;;5116512;28;20458;-48
2022/11/01 01:21:48;;;;;;;6.53;5.83;;;14.60;94.50;;;;;;5116047;28;20177;-46
2022/11/01 01:24:13;;;;;;;7.50;6.67;;;14.60;94.40;;;;;;5116869;28;20415;-46
2022/11/01 01:26:39;;;;;;;7.03;6.03;;;14.60;94.40;;;;;;5116502;28;20244;-46
2022/11/01 01:29:05;;;;;;;8.40;5.63;;;14.60;94.40;;;;;;5117595;28;20184;-48
2022/11/01 01:31:30;;;;;;;6.30;5.30;;;14.60;94.40;;;;;;5117857;28;20197;-45
2022/11/01 01:33:57;;;;;;;6.90;6.00;;;14.60;94.40;;;;;;5116955;28;20198;-46
2022/11/01 01:36:23;;;;;;;8.43;6.93;;;14.60;94.30;;;;;;5118107;28;20202;-45
2022/11/01 01:38:52;;;;;;;6.60;5.67;;;14.60;94.30;;;;;;5100006;28;20430;-45
2022/11/01 01:44:41;;;;;;;7.40;5.90;;;14.60;94.30;;;;;;5117333;28;20640;-48
2022/11/01 01:47:08;;;;;;;6.50;5.50;;;14.60;94.30;;;;;;5117555;28;20413;-47
2022/11/01 01:49:34;;;;;;;9.93;6.63;;;14.60;94.30;;;;;;5117126;28;20425;-49
2022/11/01 01:52:00;;;;;;;6.57;5.97;;;14.60;94.30;;;;;;5117705;28;20416;-45
2022/11/01 01:54:26;;;;;;;6.43;5.77;;;14.60;94.30;;;;;;5118022;28;20279;-46
2022/11/01 01:56:51;;;;;;;7.90;6.00;;;14.60;94.30;;;;;;5115828;28;20632;-46
2022/11/01 01:59:17;;;;;;;7.40;5.43;;;14.60;94.30;;;;;;5115131;28;20618;-47
2022/11/01 02:01:42;;;;;;;6.87;6.17;;;14.60;94.30;;;;;;5098300;28;20217;-50
2022/11/01 02:04:15;;;;;;;10.50;6.30;;;14.60;94.40;;;;;;5097911;28;20547;-45
2022/11/01 02:06:41;;;;;;;8.77;6.00;;;14.60;94.40;;;;;;5114127;28;20181;-47
2022/11/01 02:09:07;;;;;;;7.90;6.70;;;14.60;94.50;;;;;;5115422;28;20520;-47
2022/11/01 02:11:33;;;;;;;7.70;5.97;;;14.60;94.60;;;;;;5116649;28;20178;-45
2022/11/01 02:13:59;;;;;;;8.50;6.90;;;14.50;94.60;;;;;;5116095;28;20427;-46
2022/11/01 02:16:48;;;;;;;8.43;6.50;;;14.60;94.70;;;;;;5115747;28;20417;-46
2022/11/01 02:19:26;;;;;;;7.97;6.10;;;14.50;94.60;;;;;;5116757;28;20857;-46
2022/11/01 02:22:13;;;;;;;8.10;6.60;;;14.50;94.60;;;;;;5116805;28;20423;-46
2022/11/01 02:24:42;;;;;;;7.93;6.30;;;14.50;94.60;;;;;;5099046;28;20449;-46
2022/11/01 02:27:18;;;;;;;10.27;6.23;;;14.50;94.60;;;;;;5116770;28;20415;-46
2022/11/01 02:29:59;;;;;;;6.73;6.03;;;14.60;94.70;;;;;;5099359;28;20421;-46
2022/11/01 02:32:31;;;;;;;9.93;6.90;;;14.60;94.70;;;;;;5117064;28;20504;-44
2022/11/01 02:35:15;;;;;;;7.60;6.00;;;14.60;94.70;;;;;;5117260;28;20407;-49
2022/11/01 02:37:53;;;;;;;7.00;5.50;;;14.60;94.80;;;;;;5117542;28;20866;-52
2022/11/01 02:40:34;;;;;;;6.77;6.10;;;14.60;94.80;;;;;;5117557;28;20493;-46
2022/11/01 02:43:03;;;;;;;6.80;5.83;;;14.60;94.90;;;;;;5099665;28;20517;-44
2022/11/01 02:45:41;;;;;;;9.07;5.53;;;14.60;95.00;;;;;;5100190;28;20419;-46
2022/11/01 02:48:07;;;;;;;7.77;5.83;;;14.60;95.00;;;;;;5100890;28;20424;-47
2022/11/01 02:50:41;;;;;;;8.70;6.80;;;14.50;95.00;;;;;;5118970;28;20416;-48
2022/11/01 02:53:07;;;;;;;7.20;6.00;;;14.50;95.00;;;;;;5102356;28;20538;-46
2022/11/01 02:55:34;;;;;;;6.47;5.53;;;14.50;95.00;;;;;;5119593;28;20427;-46
2022/11/01 02:58:00;;;;;;;8.03;6.33;;;14.50;95.00;;;;;;5119482;28;20682;-47
2022/11/01 03:00:29;;;;;;;8.90;6.90;;;14.50;95.00;;;;;;5116961;28;20468;-46
2022/11/01 03:03:24;;;;;;;10.50;6.67;;;14.50;95.00;;;;;;5119560;28;20502;-45
2022/11/01 03:05:59;;;;;;;7.73;6.07;;;14.50;94.90;;;;;;5099063;28;20491;-46
2022/11/01 03:08:45;;;;;;;8.47;6.20;;;14.50;94.80;;;;;;5118981;28;20420;-45
2022/11/01 03:11:18;;;;;;;9.27;5.53;;;14.50;94.70;;;;;;5102114;28;20436;-46
2022/11/01 03:13:51;;;;;;;6.93;5.60;;;14.60;94.70;;;;;;5100821;28;20423;-44
2022/11/01 03:16:36;;;;;;;8.37;6.50;;;14.60;94.60;;;;;;5118142;28;20519;-46
2022/11/01 03:19:07;;;;;;;9.30;5.90;;;14.60;94.50;;;;;;5100901;28;20526;-46
2022/11/01 03:21:39;;;;;;;8.80;6.50;;;14.60;94.30;;;;;;5119990;28;20450;-48
2022/11/01 03:24:14;;;;;;;6.57;5.30;;;14.60;94.20;;;;;;5120545;28;20765;-50
2022/11/01 03:26:41;;;;;;;9.07;6.13;;;14.70;94.20;;;;;;5119682;28;20402;-49
2022/11/01 03:29:08;;;;;;;11.50;5.33;;;14.70;94.10;;;;;;5102821;28;20482;-49
2022/11/01 03:31:35;;;;;;;5.37;4.87;;;14.70;94.00;;;;;;5102456;28;20477;-49
2022/11/01 03:34:14;;;;;;;6.10;4.50;;;14.70;93.80;;;;;;5102516;28;20425;-51
2022/11/01 03:36:51;;;;;;;7.17;4.70;;;14.80;93.80;;;;;;5102237;28;20416;-47
2022/11/01 03:39:21;;;;;;;7.03;4.60;;;14.80;93.80;;;;;;5120222;28;20456;-47
2022/11/01 03:41:49;;;;;;;11.77;4.40;;;14.90;93.80;;;;;;5120230;28;20398;-45
2022/11/01 03:44:15;;;;;;;8.20;4.57;;;14.90;93.80;;;;;;5085226;28;20481;-48
2022/11/01 03:46:42;;;;;;;11.13;4.90;;;15.00;93.80;;;;;;5102563;28;20424;-48
2022/11/01 03:49:07;;;;;;;11.93;4.83;;;15.00;93.70;;;;;;5101797;28;20824;-47
2022/11/01 03:51:33;;;;;;;9.63;4.57;;;15.10;93.70;;;;;;5119732;28;20474;-45
2022/11/01 03:53:58;;;;;;;6.63;5.30;;;15.10;93.70;;;;;;5119494;28;20453;-46
2022/11/01 03:56:24;;;;;;;6.77;4.33;;;15.20;93.70;;;;;;5119455;28;20263;-47
2022/11/01 03:58:50;;;;;;;7.90;3.90;;;15.20;93.60;;;;;;5118986;28;20170;-46
2022/11/01 04:01:16;;;;;;;4.80;3.73;;;15.30;93.50;;;;;;5119350;28;20623;-47
2022/11/01 04:03:43;;;;;;;5.40;4.40;;;15.30;93.40;;;;;;5119668;28;20542;-44
2022/11/01 04:06:08;;;;;;;5.30;4.40;;;15.40;93.30;;;;;;5119804;28;20412;-46
2022/11/01 04:08:35;;;;;;;11.80;4.97;;;15.40;93.20;;;;;;5118807;28;20432;-46
2022/11/01 04:11:01;;;;;;;8.13;4.90;;;15.40;93.10;;;;;;5119149;28;20177;-46
2022/11/01 04:13:27;;;;;;;10.03;5.20;;;15.40;92.90;;;;;;5118426;28;20430;-48
2022/11/01 04:21:23;;;;;;;8.40;4.40;;;15.50;92.80;;;;;;5119041;28;20422;-47
2022/11/01 04:23:49;;;;;;;7.80;4.57;;;15.50;92.70;;;;;;5118207;28;20434;-44
2022/11/01 04:26:20;;;;;;;5.23;4.60;;;15.50;92.70;;;;;;5117325;28;20427;-44
2022/11/01 04:28:58;;;;;;;12.43;5.10;;;15.50;92.70;;;;;;5118360;28;20176;-44
2022/11/01 04:31:30;;;;;;;6.80;4.47;;;15.50;92.80;;;;;;5117223;28;20423;-46
2022/11/01 04:33:56;;;;;;;5.73;4.63;;;15.50;92.90;;;;;;5100748;28;20562;-46
2022/11/01 04:36:22;;;;;;;6.83;4.57;;;15.50;92.90;;;;;;5119077;28;20677;-47
2022/11/01 04:38:54;;;;;;;6.77;3.90;;;15.50;93.00;;;;;;5118760;28;20429;-45
2022/11/01 04:41:21;;;;;;;8.17;4.80;;;15.50;93.00;;;;;;5099796;28;20435;-49
2022/11/01 04:43:48;;;;;;;5.90;3.93;;;15.50;93.10;;;;;;5085452;28;20428;-48
2022/11/01 04:46:14;;;;;;;10.30;5.00;;;15.50;93.10;;;;;;5078061;28;20415;-46
2022/11/01 04:48:39;;;;;;;6.27;4.00;;;15.50;93.10;;;;;;5078271;28;20417;-46
2022/11/01 04:51:06;;;;;;;8.97;4.23;;;15.50;93.20;;;;;;5078466;28;20492;-45
2022/11/01 04:53:31;;;;;;;7.90;3.40;;;15.50;93.20;;;;;;5060763;28;20615;-45
2022/11/01 04:55:57;;;;;;;7.40;3.60;;;15.50;93.20;;;;;;5076937;28;20505;-45
2022/11/01 04:58:22;;;;;;;3.67;2.80;;;15.50;93.30;;;;;;5060140;28;20460;-48
2022/11/01 05:00:48;;;;;;;5.70;3.73;;;15.60;93.40;;;;;;5077445;28;20601;-46
2022/11/01 05:03:14;;;;;;;7.03;4.10;;;15.50;93.40;;;;;;5077959;28;20196;-45
2022/11/01 05:05:39;;;;;;;7.37;3.70;;;15.60;93.50;;;;;;5077535;28;20548;-45
2022/11/01 05:08:07;;;;;;;4.23;3.10;;;15.60;93.60;;;;;;5077322;28;20331;-46
2022/11/01 05:10:34;;;;;;;3.67;3.10;;;15.60;93.60;;;;;;5078015;28;20175;-47
2022/11/01 05:13:00;;;;;;;4.60;3.50;;;15.60;93.70;;;;;;5077414;28;20443;-45
2022/11/01 05:15:26;;;;;;;5.90;3.53;;;15.60;93.70;;;;;;5077141;28;20426;-46
2022/11/01 05:17:52;;;;;;;4.70;3.03;;;15.60;93.90;;;;;;5076461;28;20434;-46
2022/11/01 05:20:18;;;;;;;3.67;2.57;;;15.60;93.90;;;;;;5077651;28;20429;-46
2022/11/01 05:22:43;;;;;;;5.90;2.40;;;15.60;94.20;;;;;;5077621;28;20176;-45
2022/11/01 05:25:09;;;;;;;4.67;2.30;;;15.60;94.30;;;;;;5076590;28;20413;-46
2022/11/01 05:27:36;;;;;;;4.13;2.80;;;15.60;94.80;;;;;;5076089;28;20180;-45
2022/11/01 05:30:02;;;;;;;2.70;2.03;;;15.60;95.20;;;;;;5075977;28;20254;-44
2022/11/01 05:32:27;;;;;;;4.30;2.10;;;15.60;95.50;;;;;;5076285;28;20434;-47
2022/11/01 05:34:53;;;;;;;4.70;2.10;;;15.60;95.80;;;;;;5076650;28;20529;-46
2022/11/01 05:37:19;;;;;;;2.70;2.00;;;15.60;96.20;;;;;;5076131;28;20257;-45
2022/11/01 05:39:45;;;;;;;2.03;1.63;;;15.60;96.50;;;;;;5076693;28;20463;-46
2022/11/01 05:42:10;;;;;;;2.37;1.60;;;15.60;96.80;;;;;;5077065;28;20174;-46
2022/11/01 05:44:36;;;;;;;2.27;1.87;;;15.60;97.10;;;;;;5077251;28;20616;-45
2022/11/01 05:47:03;;;;;;;3.00;1.40;;;15.60;97.30;;;;;;5076890;28;20174;-44
2022/11/01 05:49:28;;;;;;;4.47;2.47;;;15.50;97.50;;;;;;5076968;28;20455;-50
2022/11/01 05:51:54;;;;;;;2.47;1.40;;;15.50;97.60;;;;;;5076769;28;20424;-48
2022/11/01 05:54:20;;;;;;;2.90;1.70;;;15.50;97.80;;;;;;5076973;28;20184;-46
2022/11/01 05:56:46;;;;;;;2.70;1.60;;;15.50;98.00;;;;;;5077099;28;20241;-48
2022/11/01 05:59:12;;;;;;;1.80;1.40;;;15.40;98.10;;;;;;5077056;28;20211;-44
2022/11/01 06:01:38;;;;;;;2.97;1.73;;;15.40;98.10;;;;;;5058589;28;20423;-45
2022/11/01 06:04:03;;;;;;;2.20;1.63;;;15.40;98.50;;;;;;5075699;28;20190;-45
2022/11/01 06:06:29;;;;;;;3.43;1.57;;;15.40;98.40;;;;;;5075560;28;20172;-45
2022/11/01 06:08:58;;;;;;;2.23;1.40;;;15.40;98.50;;;;;;5058753;28;20249;-44
2022/11/01 06:11:39;;;;;;;3.23;1.80;;;15.40;98.50;;;;;;5077399;28;20181;-46
2022/11/01 06:14:05;;;;;;;1.90;1.47;;;15.30;98.70;;;;;;5090147;28;20427;-45
2022/11/01 06:16:32;;;;;;;1.60;1.20;;;15.30;98.90;;;;;;5096676;28;20436;-46
2022/11/01 06:18:58;;;;;;;2.47;1.70;;;15.20;99.00;;;;;;5079244;28;20517;-44
2022/11/01 06:21:23;;;;;;;2.00;1.30;;;15.20;99.20;;;;;;5076665;28;20422;-46
2022/11/01 06:23:50;;;;;;;2.03;1.30;;;15.20;99.20;;;;;;5100676;28;20180;-48
2022/11/01 06:26:17;;;;;;;3.30;1.97;;;15.10;99.20;;;;;;5101226;28;20388;-45
2022/11/01 06:28:43;;;;;;;2.07;1.37;;;15.10;99.30;;;;;;5100733;28;20419;-46
2022/11/01 06:31:09;;;;;;;3.73;1.43;;;15.10;99.50;;;;;;5099159;28;20873;-42
2022/11/01 06:33:35;;;;;;;2.37;1.63;;;15.10;99.70;;;;;;5099693;28;20497;-49
2022/11/01 06:36:01;;;;;;;2.17;1.70;;;15.10;99.80;;;;;;5099367;28;20462;-46
2022/11/01 06:38:26;;;;;;;2.40;1.70;;;15.00;99.80;;;;;;5098921;28;20421;-43
2022/11/01 06:40:52;;;;;;;1.90;1.20;;;15.10;99.90;;;;;;5096839;28;20469;-43
2022/11/01 06:43:18;;;;;;;2.07;1.43;;;15.00;99.90;;;;;;5098609;28;20377;-47
2022/11/01 06:45:43;;;;;;;2.73;2.07;;;15.00;99.90;;;;;;5098625;28;20187;-43
2022/11/01 06:48:09;;;;;;;1.40;1.10;;;15.00;99.90;;;;;;5099807;28;20178;-43
2022/11/01 06:50:34;;;;;;;3.23;1.47;;;15.10;99.90;;;;;;5098708;28;20179;-43
2022/11/01 06:53:00;;;;;;;4.53;1.63;;;15.10;99.90;;;;;;5099877;28;20569;-44
2022/11/01 06:55:27;;;;;;;2.30;1.20;;;15.10;99.90;;;;;;5099795;28;20183;-44
2022/11/01 06:58:00;;;;;;;1.80;1.30;;;15.10;99.90;;;;;;5099281;28;20552;-42
2022/11/01 07:00:27;;;;;;;1.77;1.27;;;15.10;99.90;;;;;;5100488;28;20472;-44
2022/11/01 07:03:04;;;;;;;1.70;1.20;;;15.10;99.90;;;;;;5100244;28;20878;-48
2022/11/01 07:05:37;;;;;;;1.90;1.00;;;15.10;99.90;;;;;;5099160;28;20414;-45
2022/11/01 07:08:06;;;;;;;1.90;1.20;;;15.20;99.90;;;;;;5080581;28;20421;-44
2022/11/01 07:10:32;;;;;;;1.70;0.90;;;15.20;99.90;;;;;;5099304;28;20488;-45
2022/11/01 07:13:02;;;;;;;1.40;1.00;;;15.20;99.90;;;;;;5096918;28;20525;-42
2022/11/01 07:15:29;;;;;;;3.53;1.77;;;15.20;99.90;;;;;;5098082;28;20462;-43
2022/11/01 07:17:55;;;;;;;2.07;0.80;;;15.20;99.90;;;;;;5099065;28;20420;-44
2022/11/01 07:20:22;;;;;;;2.70;1.03;;;15.30;99.90;;;;;;5097016;28;20460;-43
2022/11/01 07:22:57;;;;;;;1.60;1.00;;;15.30;99.80;;;;;;5099747;28;20499;-45
2022/11/01 07:25:22;;;;;;;3.73;1.20;;;15.40;99.90;;;;;;5099156;28;20456;-45
2022/11/01 07:27:48;;;;;;;2.90;1.23;;;15.50;99.90;;;;;;5096721;28;20442;-44
2022/11/01 07:30:14;;;;;;;1.67;0.90;;;15.60;99.80;;;;;;5097590;28;20232;-47
2022/11/01 07:32:40;;;;;;;1.83;0.90;;;15.70;99.70;;;;;;5095811;28;20179;-43
2022/11/01 07:35:06;;;;;;;1.80;1.13;;;15.70;99.60;;;;;;5097251;28;20536;-47
2022/11/01 07:37:32;;;;;;;1.67;0.97;;;15.80;99.50;;;;;;5096148;28;20496;-44
2022/11/01 07:39:57;;;;;;;1.57;0.80;;;15.90;99.30;;;;;;5098048;28;20545;-42
2022/11/01 07:42:23;;;;;;;1.40;0.90;;;16.00;99.20;;;;;;5098731;28;20230;-44
2022/11/01 07:44:49;;;;;;;1.60;1.00;;;16.10;99.00;;;;;;5098926;28;20547;-47
2022/11/01 07:47:14;;;;;;;2.27;1.17;;;16.20;98.90;;;;;;5098464;28;20182;-43
2022/11/01 07:49:40;;;;;;;1.50;1.10;;;16.30;98.70;;;;;;5099056;28;20175;-45
2022/11/01 07:52:06;;;;;;;1.50;1.00;;;16.40;98.60;;;;;;5099194;28;20188;-47
2022/11/01 07:54:31;;;;;;;1.40;1.17;;;16.50;98.50;;;;;;5098483;28;20270;-44
2022/11/01 07:56:57;;;;;;;1.57;0.93;;;16.60;98.30;;;;;;5098535;28;20250;-44
2022/11/01 07:59:23;;;;;;;1.27;0.83;;;16.70;98.00;;;;;;5080983;28;20212;-42
2022/11/01 08:01:48;;;;;;;1.50;1.30;;;16.80;97.80;;;;;;5098656;28;20176;-45
2022/11/01 08:04:14;;;;;;;1.70;1.10;;;16.90;97.60;;;;;;5099344;28;20266;-47
2022/11/01 08:06:39;;;;;;;2.30;1.13;;;17.10;97.40;;;;;;5099032;28;20639;-43
2022/11/01 08:09:05;;;;;;;2.73;1.00;;;17.10;97.00;;;;;;5099065;28;20190;-44
2022/11/01 08:11:31;;;;;;;2.23;1.57;;;17.20;96.70;;;;;;5098911;28;20175;-44
2022/11/01 08:13:56;;;;;;;1.40;0.93;;;17.30;96.40;;;;;;5098810;28;20605;-46
2022/11/01 08:16:22;;;;;;;2.77;1.10;;;17.40;96.10;;;;;;5099295;28;20184;-47
2022/11/01 08:18:49;;;;;;;1.83;0.90;;;17.50;95.90;;;;;;5098930;28;20581;-47
2022/11/01 08:21:17;;;;;;;1.63;1.07;;;17.60;96.00;;;;;;5098747;28;20169;-46
2022/11/01 08:23:44;;;;;;;2.90;1.33;;;17.70;95.50;;;;;;5098023;28;20466;-44
2022/11/01 08:26:10;;;;;;;1.57;1.17;;;17.70;95.30;;;;;;5098340;28;20450;-45
2022/11/01 08:28:36;;;;;;;1.90;1.00;;;17.80;95.00;;;;;;5097870;28;20405;-43
2022/11/01 08:31:05;;;;;;;1.33;0.97;;;17.90;94.80;;;;;;5098809;28;20435;-47
2022/11/01 08:33:31;;;;;;;2.10;1.20;;;18.00;94.70;;;;;;5097199;28;20668;-46
2022/11/01 08:35:57;;;;;;;1.53;0.87;;;18.10;94.70;;;;;;5080379;28;20437;-44
2022/11/01 08:38:23;;;;;;;1.77;0.87;;;18.20;94.30;;;;;;5097511;28;20180;-46
2022/11/01 08:40:49;;;;;;;1.53;0.77;;;18.30;93.80;;;;;;5097505;28;20208;-45
2022/11/01 08:43:15;;;;;;;1.23;0.73;;;18.40;93.50;;;;;;5096008;28;20662;-45
2022/11/01 08:45:41;;;;;;;1.80;1.30;;;18.50;93.20;;;;;;5095927;28;20176;-44
2022/11/01 08:48:08;;;;;;;1.53;1.03;;;18.60;92.80;;;;;;5078271;28;20770;-43
2022/11/01 08:50:36;;;;;;;1.90;0.90;;;18.60;92.70;;;;;;5097032;28;20257;-43
2022/11/01 08:53:09;;;;;;;1.57;0.90;;;18.60;92.40;;;;;;5076319;28;20441;-43
2022/11/01 08:55:35;;;;;;;2.23;0.80;;;18.70;92.20;;;;;;5095500;28;20828;-44
2022/11/01 08:58:01;;;;;;;1.40;0.70;;;18.70;92.20;;;;;;5097022;28;20643;-47
2022/11/01 09:00:27;;;;;;;1.20;0.80;;;18.60;92.00;;;;;;5063684;28;20457;-43
2022/11/01 09:02:53;;;;;;;1.20;0.83;;;18.60;91.90;;;;;;5097010;28;20218;-43
2022/11/01 09:05:18;;;;;;;1.30;0.90;;;18.50;91.90;;;;;;5097958;28;20180;-45
2022/11/01 09:07:44;;;;;;;1.70;0.83;;;18.50;91.90;;;;;;5098834;28;20264;-45
2022/11/01 09:10:10;;;;;;;1.30;0.77;;;18.40;92.00;;;;;;5096530;28;20184;-45
2022/11/01 09:12:36;;;;;;;1.03;0.63;;;18.30;92.00;;;;;;5097427;28;20429;-45
2022/11/01 09:15:04;;;;;;;1.53;0.63;;;18.30;92.20;;;;;;5097453;28;20775;-45
2022/11/01 09:17:29;;;;;;;1.40;0.80;;;18.30;92.40;;;;;;5097854;28;20414;-45
2022/11/01 09:19:55;;;;;;;1.20;0.90;;;18.30;92.30;;;;;;5098119;28;20883;-44
2022/11/01 09:22:21;;;;;;;1.90;1.50;;;18.40;92.40;;;;;;5063907;28;20429;-46
2022/11/01 09:24:47;;;;;;;1.20;1.10;;;18.50;92.60;;;;;;5097256;28;20425;-46
2022/11/01 09:27:13;;;;;;;3.30;0.97;;;18.80;92.90;;;;;;5097452;28;20424;-44
2022/11/01 09:29:38;;;;;;;1.90;1.30;;;19.20;92.80;;;;;;5063434;28;20182;-47
2022/11/01 09:32:05;;;;;;;2.80;2.00;;;19.80;92.40;;;;;;5096582;28;20285;-48
2022/11/01 09:34:31;;;;;;;2.17;1.50;;;20.40;91.80;;;;;;5097140;28;20184;-47
2022/11/01 09:36:57;;;;;;;2.13;1.57;;;21.10;91.30;;;;;;5080021;28;20425;-45
2022/11/01 09:39:22;;;;;;;2.07;1.10;;;22.50;90.10;;;;;;5097070;28;20225;-47
2022/11/01 09:41:59;;;;;;;1.70;0.97;;;24.90;83.40;;;;;;5079480;28;20568;-43
2022/11/01 09:44:40;;;;;;;2.10;0.90;;;27.40;69.70;;;;;;5062397;28;20418;-49
2022/11/01 09:47:20;;;;;;;2.20;0.83;;;29.90;57.90;;;;;;5097038;28;20415;-47
2022/11/01 09:49:49;;;;;;;1.20;0.80;;;31.70;51.50;;;;;;5077934;28;20427;-45
2022/11/01 09:52:23;;;;;;;1.30;1.03;;;33.00;47.20;;;;;;5096134;28;20806;-46
2022/11/01 09:54:49;;;;;;;1.30;0.80;;;33.80;44.30;;;;;;5097251;28;20489;-44
2022/11/01 09:57:34;;;;;;;4.03;0.80;;;34.10;42.90;;;;;;5100456;28;20829;-44
2022/11/01 10:00:09;;;;;;;1.80;1.00;;;34.30;41.70;;;;;;5100253;28;20466;-43
2022/11/01 10:02:38;;;;;;;2.07;0.93;;;34.40;41.30;;;;;;5099717;28;20445;-44
2022/11/01 10:05:18;;;;;;;2.30;1.10;;;34.40;41.40;;;;;;5100925;28;20800;-45
2022/11/01 10:08:06;;;;;;;1.57;1.00;;;34.30;41.00;;;;;;5099016;28;20949;-44
2022/11/01 10:11:09;;;;;;;1.47;0.97;;;33.80;40.30;;;;;;5081517;28;20418;-44
2022/11/01 10:14:06;;;;;;;6.13;1.10;;;32.90;40.90;;;;;;5098490;28;20838;-46
2022/11/01 10:16:40;;;;;;;2.13;0.87;;;32.10;41.00;;;;;;5097953;28;20527;-44
2022/11/01 10:19:18;;;;;;;1.60;1.00;;;31.40;41.70;;;;;;5063786;28;20415;-45
2022/11/01 10:21:45;;;;;;;1.40;1.00;;;30.90;42.20;;;;;;5083196;28;20410;-45
2022/11/01 10:24:20;;;;;;;1.20;0.90;;;30.60;42.30;;;;;;5081993;28;20407;-46
2022/11/01 10:26:49;;;;;;;2.10;1.20;;;30.40;42.70;;;;;;5099636;28;20416;-44
2022/11/01 10:29:27;;;;;;;2.23;1.23;;;30.10;43.00;;;;;;5081727;28;20479;-46
2022/11/01 10:31:53;;;;;;;2.13;1.40;;;29.80;43.10;;;;;;5101051;28;20850;-44
2022/11/01 10:34:28;;;;;;;2.33;1.17;;;29.50;43.50;;;;;;5065253;28;20430;-44
2022/11/01 10:37:24;;;;;;;1.90;0.97;;;29.10;43.60;;;;;;5081839;28;20427;-46
2022/11/01 10:39:56;;;;;;;1.67;1.00;;;28.60;43.80;;;;;;5098062;28;20524;-44
2022/11/01 10:42:21;;;;;;;2.53;1.10;;;28.00;44.50;;;;;;5099674;28;20406;-42
2022/11/01 10:44:56;;;;;;;1.70;1.10;;;27.70;45.10;;;;;;5101200;28;20747;-45
2022/11/01 10:47:22;;;;;;;1.47;1.10;;;27.60;45.70;;;;;;5099138;28;20200;-44
2022/11/01 10:49:51;;;;;;;1.63;1.10;;;27.30;45.80;;;;;;5080866;28;20428;-44
2022/11/01 10:52:20;;;;;;;2.43;1.17;;;27.10;45.90;;;;;;5097757;28;20447;-44
2022/11/01 10:54:47;;;;;;;2.40;1.00;;;26.80;46.30;;;;;;5096936;28;20740;-44
2022/11/01 10:57:44;;;;;;;2.90;1.30;;;26.70;46.50;;;;;;5097092;28;20469;-46
2022/11/01 11:00:15;;;;;;;2.60;1.30;;;26.40;47.00;;;;;;5078850;28;20478;-43
2022/11/01 11:02:47;;;;;;;1.37;0.97;;;26.30;47.20;;;;;;5081324;28;20856;-44
2022/11/01 11:05:14;;;;;;;1.93;1.17;;;26.20;47.50;;;;;;5099824;28;20431;-43
2022/11/01 11:07:40;;;;;;;2.47;1.10;;;26.10;47.50;;;;;;5100323;28;20411;-45
2022/11/01 11:10:16;;;;;;;2.50;1.50;;;26.10;47.70;;;;;;5081008;28;20483;-43
2022/11/01 11:12:42;;;;;;;1.83;1.40;;;26.50;47.60;;;;;;5098551;28;20700;-44
2022/11/01 11:15:36;;;;;;;2.17;1.17;;;26.80;47.00;;;;;;5097785;28;20802;-47
2022/11/01 11:18:03;;;;;;;2.17;1.27;;;27.40;46.50;;;;;;5077890;28;20431;-44
2022/11/01 11:20:29;;;;;;;2.93;1.07;;;28.00;45.20;;;;;;5081784;28;20467;-44
2022/11/01 11:22:55;;;;;;;1.80;1.10;;;28.70;43.90;;;;;;5099345;28;20415;-44
2022/11/01 11:25:30;;;;;;;2.10;1.40;;;29.20;43.30;;;;;;5080573;28;20227;-44
2022/11/01 11:27:57;;;;;;;2.33;1.33;;;29.20;42.60;;;;;;5099151;28;21071;-44
2022/11/01 11:30:31;;;;;;;2.90;1.30;;;28.90;42.30;;;;;;5099014;28;20416;-46
2022/11/01 11:32:58;;;;;;;2.93;1.50;;;28.20;42.80;;;;;;5081047;28;20439;-45
2022/11/01 11:35:26;;;;;;;1.93;1.30;;;27.40;43.60;;;;;;5098460;28;20723;-44
2022/11/01 11:37:54;;;;;;;1.97;1.13;;;26.80;44.60;;;;;;5099114;28;20826;-44
2022/11/01 11:40:44;;;;;;;2.17;1.20;;;26.40;45.30;;;;;;5098911;28;20474;-47
2022/11/01 11:43:35;;;;;;;2.63;1.33;;;26.00;45.90;;;;;;5086790;28;20425;-45
2022/11/01 11:46:04;;;;;;;2.80;1.50;;;25.70;46.40;;;;;;5086969;28;20438;-45
2022/11/01 11:48:30;;;;;;;2.27;1.30;;;25.60;46.70;;;;;;5097104;28;20410;-44
2022/11/01 11:51:02;;;;;;;2.40;1.30;;;25.30;47.00;;;;;;5097292;28;20458;-48
2022/11/01 11:53:29;;;;;;;3.03;1.40;;;24.80;47.40;;;;;;5080998;28;20435;-44
2022/11/01 11:55:55;;;;;;;3.90;1.40;;;24.40;47.90;;;;;;5063812;28;20467;-43
2022/11/01 11:58:31;;;;;;;1.57;0.97;;;24.00;48.60;;;;;;5098272;28;20768;-45
2022/11/01 12:01:06;;;;;;;3.93;1.70;;;23.60;49.20;;;;;;5099338;28;20466;-44
2022/11/01 12:04:15;;;;;;;2.53;1.47;;;23.50;49.70;;;;;;5097574;28;20913;-42
2022/11/01 12:06:44;;;;;;;2.00;1.30;;;23.30;50.00;;;;;;5098661;28;20434;-45
2022/11/01 12:09:37;;;;;;;3.00;1.47;;;23.10;50.40;;;;;;5063970;28;20438;-45
2022/11/01 12:12:34;;;;;;;2.67;1.37;;;23.00;50.90;;;;;;5097358;28;20399;-43
2022/11/01 12:15:02;;;;;;;2.87;1.30;;;23.30;51.00;;;;;;5097928;28;21090;-44
2022/11/01 12:17:42;;;;;;;2.10;1.30;;;23.40;50.80;;;;;;5077326;28;20415;-45
2022/11/01 12:20:14;;;;;;;2.50;1.80;;;23.30;50.70;;;;;;5098088;28;20751;-44
2022/11/01 12:22:44;;;;;;;3.00;1.77;;;23.20;50.70;;;;;;5097544;28;20417;-46
2022/11/01 12:25:14;;;;;;;1.90;1.40;;;24.10;50.70;;;;;;5080283;28;20431;-44
2022/11/01 12:27:59;;;;;;;2.00;1.10;;;25.10;49.10;;;;;;5097228;28;20501;-44
2022/11/01 12:30:27;;;;;;;2.40;1.50;;;26.60;47.60;;;;;;5080108;28;20736;-44
2022/11/01 12:32:53;;;;;;;1.37;1.13;;;28.50;45.60;;;;;;5078628;28;20406;-48
2022/11/01 12:35:30;;;;;;;2.57;1.67;;;29.30;43.80;;;;;;5097107;28;20427;-45
2022/11/01 12:38:26;;;;;;;5.20;1.90;;;29.70;42.70;;;;;;5081096;28;20683;-44
2022/11/01 12:40:53;;;;;;;2.00;1.30;;;29.90;42.10;;;;;;5097966;28;20461;-47
2022/11/01 12:43:26;;;;;;;1.60;1.00;;;30.10;41.50;;;;;;5078992;28;20403;-44
2022/11/01 12:46:01;;;;;;;2.83;1.40;;;31.10;41.00;;;;;;5097327;28;20739;-47
2022/11/01 12:48:34;;;;;;;2.47;1.60;;;31.30;40.60;;;;;;5097454;28;20408;-44
2022/11/01 12:51:09;;;;;;;2.00;1.20;;;31.80;39.80;;;;;;5080049;28;20430;-46
2022/11/01 12:54:05;;;;;;;3.10;1.40;;;32.70;38.90;;;;;;5097780;28;20755;-45
2022/11/01 12:56:31;;;;;;;3.10;1.60;;;33.10;38.10;;;;;;5056212;28;20467;-44
2022/11/01 12:58:57;;;;;;;2.00;1.50;;;33.20;38.00;;;;;;5096149;28;20427;-46
2022/11/01 13:01:25;;;;;;;2.20;1.30;;;33.30;37.70;;;;;;5097292;28;20337;-48
2022/11/01 13:04:10;;;;;;;2.07;1.27;;;33.40;37.80;;;;;;5097060;28;20174;-45
2022/11/01 13:07:13;;;;;;;2.63;1.40;;;34.40;37.00;;;;;;5096974;28;20769;-46